| time (UTC) | temp F | wind direction | speed knots | gust knots | rain 1hr in | rain 24hr in | rain mn in | humidity % | barometer mb |
| 20260503211330 | 63 | 248 | 4.3 | 13.0 | 0.00 | 0.00 | 0.00 | 55 | 1009.1 |
| 20260503210328 | 65 | 360 | 2.6 | 10.4 | 0.00 | 0.00 | 0.00 | 51 | 1009.2 |
| 20260503205329 | 66 | 360 | 5.2 | 10.4 | 0.00 | 0.00 | 0.00 | 52 | 1009.2 |
| 20260503204346 | 66 | 287 | 4.3 | 10.4 | 0.00 | 0.00 | 0.00 | 52 | 1009.4 |
| 20260503203321 | 64 | 360 | 4.3 | 7.8 | 0.00 | 0.00 | 0.00 | 55 | 1009.3 |
| 20260503202328 | 63 | 250 | 2.6 | 9.6 | 0.00 | 0.00 | 0.00 | 57 | 1009.5 |
| 20260503201328 | 62 | 226 | 2.6 | 8.7 | 0.00 | 0.00 | 0.00 | 57 | 1009.4 |
| 20260503200343 | 63 | 193 | 3.5 | 9.6 | 0.00 | 0.00 | 0.00 | 54 | 1009.4 |
| 20260503195328 | 62 | 257 | 1.7 | 8.7 | 0.00 | 0.00 | 0.00 | 55 | 1009.5 |
| 20260503194331 | 62 | 160 | 2.6 | 7.8 | 0.00 | 0.00 | 0.00 | 56 | 1009.5 |
| 20260503193331 | 62 | 271 | 2.6 | 10.4 | 0.00 | 0.00 | 0.00 | 56 | 1009.5 |
| 20260503192414 | 62 | 261 | 1.7 | 7.8 | 0.00 | 0.00 | 0.00 | 57 | 1009.6 |
| 20260503191325 | 62 | 234 | 0.9 | 9.6 | 0.00 | 0.00 | 0.00 | 53 | 1009.6 |
| 20260503190321 | 63 | 261 | 1.7 | 9.6 | 0.00 | 0.00 | 0.00 | 52 | 1009.6 |
| 20260503185345 | 64 | 360 | 1.7 | 12.2 | 0.00 | 0.00 | 0.00 | 50 | 1009.5 |
| 20260503184345 | 64 | 267 | 3.5 | 6.1 | 0.00 | 0.00 | 0.00 | 53 | 1009.6 |
| 20260503183408 | 64 | 135 | 2.6 | 9.6 | 0.00 | 0.00 | 0.00 | 51 | 1009.6 |
| 20260503182342 | 64 | 191 | 3.5 | 9.6 | 0.00 | 0.00 | 0.00 | 53 | 1009.6 |
| 20260503181341 | 63 | 313 | 1.7 | 9.6 | 0.00 | 0.00 | 0.00 | 55 | 1009.6 |
| 20260503180339 | 61 | 140 | 1.7 | 8.7 | 0.00 | 0.00 | 0.00 | 58 | 1009.5 |
| 20260503175336 | 61 | 360 | 1.7 | 7.0 | 0.00 | 0.00 | 0.00 | 59 | 1009.5 |
| 20260503174335 | 60 | 281 | 1.7 | 10.4 | 0.00 | 0.00 | 0.00 | 62 | 1009.4 |
| 20260503173331 | 59 | 221 | 1.7 | 6.1 | 0.00 | 0.00 | 0.00 | 65 | 1009.4 |
| 20260503172326 | 58 | 360 | 1.7 | 5.2 | 0.00 | 0.00 | 0.00 | 69 | 1009.5 |
| 20260503171326 | 57 | 355 | 2.6 | 3.5 | 0.00 | 0.00 | 0.00 | 70 | 1009.5 |
| 20260503170352 | 57 | 326 | 2.6 | 6.1 | 0.00 | 0.00 | 0.00 | 71 | 1009.5 |
| 20260503150331 | 54 | 223 | 0.0 | 2.6 | 0.00 | 0.00 | 0.00 | 80 | 1008.9 |
| 20260503131327 | 53 | 270 | 0.0 | 0.0 | 0.00 | 0.00 | 0.00 | 79 | 1007.7 |
| 20260503130325 | 53 | 270 | 0.0 | 0.0 | 0.00 | 0.00 | 0.00 | 79 | 1007.7 |
| 20260503110345 | 53 | 263 | 0.0 | 0.0 | 0.00 | 0.00 | 0.00 | 78 | 1007.8 |
| 20260503090341 | 53 | 257 | 1.7 | 5.2 | 0.00 | 0.00 | 0.00 | 77 | 1008.0 |
| 20260503081327 | 53 | 266 | 1.7 | 4.3 | 0.00 | 0.00 | 0.00 | 77 | 1008.5 |
| 20260503080323 | 53 | 286 | 2.6 | 5.2 | 0.00 | 0.00 | 0.00 | 77 | 1008.5 |
| 20260503072325 | 53 | 276 | 0.0 | 3.5 | 0.00 | 0.00 | 0.00 | 77 | 1008.5 |
| 20260503071328 | 53 | 270 | 1.7 | 4.3 | 0.00 | 0.00 | 0.00 | 77 | 1008.5 |
| 20260503070328 | 53 | 315 | 0.9 | 3.5 | 0.00 | 0.00 | 0.00 | 77 | 1008.5 |
| 20260503054344 | 53 | 277 | 0.0 | 3.5 | 0.00 | 0.00 | 0.00 | 77 | 1008.9 |
| 20260503053344 | 54 | 261 | 0.0 | 2.6 | 0.00 | 0.00 | 0.00 | 76 | 1008.9 |
| 20260503052345 | 54 | 278 | 0.9 | 6.1 | 0.00 | 0.00 | 0.00 | 76 | 1008.9 |
| 20260503051345 | 54 | 257 | 2.6 | 7.8 | 0.00 | 0.00 | 0.00 | 75 | 1009.0 |
| 20260503050342 | 54 | 255 | 3.5 | 9.6 | 0.00 | 0.00 | 0.00 | 76 | 1009.0 |
| 20260503045343 | 54 | 254 | 3.5 | 7.0 | 0.00 | 0.00 | 0.00 | 75 | 1008.9 |
| 20260503044343 | 54 | 233 | 1.7 | 5.2 | 0.00 | 0.00 | 0.00 | 76 | 1008.8 |
| 20260503043346 | 54 | 275 | 2.6 | 6.1 | 0.00 | 0.00 | 0.00 | 76 | 1008.8 |
| 20260503042347 | 54 | 261 | 3.5 | 6.1 | 0.00 | 0.00 | 0.00 | 75 | 1008.7 |
| 20260503041345 | 54 | 244 | 1.7 | 5.2 | 0.00 | 0.00 | 0.00 | 75 | 1008.6 |
| 20260503040343 | 54 | 265 | 0.0 | 4.3 | 0.00 | 0.00 | 0.00 | 75 | 1008.6 |
| 20260503035340 | 54 | 240 | 2.6 | 8.7 | 0.00 | 0.00 | 0.00 | 74 | 1008.4 |
| 20260503034340 | 54 | 286 | 1.7 | 4.3 | 0.00 | 0.00 | 0.00 | 74 | 1008.3 |
| 20260503033345 | 54 | 266 | 1.7 | 5.2 | 0.00 | 0.00 | 0.00 | 74 | 1008.3 |
| 20260503032342 | 54 | 219 | 2.6 | 6.1 | 0.00 | 0.00 | 0.00 | 74 | 1008.1 |
| 20260503031342 | 54 | 276 | 3.5 | 7.8 | 0.00 | 0.00 | 0.00 | 74 | 1007.9 |
| 20260503030341 | 55 | 268 | 3.5 | 8.7 | 0.00 | 0.00 | 0.00 | 73 | 1007.9 |
| 20260503025322 | 55 | 220 | 1.7 | 13.0 | 0.00 | 0.00 | 0.00 | 73 | 1007.7 |
| 20260503024326 | 55 | 292 | 2.6 | 11.3 | 0.00 | 0.00 | 0.00 | 73 | 1007.4 |
| 20260503023406 | 56 | 161 | 6.1 | 12.2 | 0.00 | 0.00 | 0.00 | 72 | 1007.4 |
| 20260503022340 | 56 | 229 | 4.3 | 12.2 | 0.00 | 0.00 | 0.00 | 72 | 1007.4 |
| 20260503021339 | 56 | 269 | 4.3 | 12.2 | 0.00 | 0.00 | 0.00 | 72 | 1007.5 |
| 20260503020341 | 57 | 218 | 1.7 | 12.2 | 0.00 | 0.00 | 0.00 | 71 | 1007.5 |
| 20260503015339 | 58 | 243 | 4.3 | 11.3 | 0.00 | 0.00 | 0.00 | 70 | 1007.5 |
| 20260503014341 | 58 | 257 | 6.1 | 12.2 | 0.00 | 0.00 | 0.00 | 69 | 1007.5 |
| 20260503013344 | 59 | 287 | 5.2 | 10.4 | 0.00 | 0.00 | 0.00 | 69 | 1007.5 |
| 20260503012344 | 59 | 294 | 4.3 | 11.3 | 0.00 | 0.00 | 0.00 | 68 | 1007.6 |
| 20260503010340 | 60 | 254 | 2.6 | 9.6 | 0.00 | 0.00 | 0.00 | 67 | 1007.6 |
| 20260503005342 | 60 | 229 | 1.7 | 6.1 | 0.00 | 0.00 | 0.00 | 67 | 1007.7 |
| 20260503004341 | 61 | 253 | 6.1 | 11.3 | 0.00 | 0.00 | 0.00 | 67 | 1007.7 |
| 20260503003406 | 61 | 261 | 5.2 | 15.6 | 0.00 | 0.00 | 0.00 | 65 | 1007.7 |
| 20260503002344 | 61 | 243 | 3.5 | 11.3 | 0.00 | 0.00 | 0.00 | 65 | 1007.8 |
| 20260503001341 | 62 | 290 | 5.2 | 9.6 | 0.00 | 0.00 | 0.00 | 64 | 1007.8 |
| 20260503000344 | 62 | 250 | 4.3 | 12.2 | 0.00 | 0.00 | 0.00 | 63 | 1007.8 |
| 20260502235324 | 63 | 245 | 4.3 | 14.8 | 0.00 | 0.00 | 0.00 | 62 | 1007.8 |
| 20260502234350 | 63 | 281 | 3.5 | 11.3 | 0.00 | 0.00 | 0.00 | 62 | 1007.8 |
| 20260502233327 | 63 | 234 | 3.5 | 8.7 | 0.00 | 0.00 | 0.00 | 63 | 1007.8 |
| 20260502232327 | 64 | 254 | 4.3 | 9.6 | 0.00 | 0.00 | 0.00 | 62 | 1008.0 |
| 20260502231352 | 65 | 360 | 3.5 | 7.8 | 0.00 | 0.00 | 0.00 | 60 | 1008.3 |
| 20260502230356 | 65 | 360 | 2.6 | 10.4 | 0.00 | 0.00 | 0.00 | 59 | 1008.3 |
| 20260502225333 | 65 | 360 | 2.6 | 6.1 | 0.00 | 0.00 | 0.00 | 60 | 1008.4 |
| 20260502224333 | 64 | 360 | 2.6 | 11.3 | 0.00 | 0.00 | 0.00 | 60 | 1008.4 |
| 20260502223333 | 65 | 360 | 2.6 | 9.6 | 0.00 | 0.00 | 0.00 | 60 | 1008.4 |
| 20260502222356 | 66 | 19 | 2.6 | 7.8 | 0.00 | 0.00 | 0.00 | 59 | 1008.7 |
| 20260502221335 | 66 | 331 | 3.5 | 9.6 | 0.00 | 0.00 | 0.00 | 60 | 1008.9 |
| 20260502220333 | 66 | 278 | 1.7 | 9.6 | 0.00 | 0.00 | 0.00 | 60 | 1008.9 |
| 20260502215330 | 65 | 360 | 4.3 | 12.2 | 0.00 | 0.00 | 0.00 | 61 | 1009.0 |
| 20260502214328 | 65 | 360 | 0.9 | 11.3 | 0.00 | 0.00 | 0.00 | 61 | 1009.2 |
| 20260502213328 | 66 | 327 | 0.9 | 6.1 | 0.00 | 0.00 | 0.00 | 61 | 1009.2 |
| 20260502212352 | 65 | 17 | 4.3 | 7.8 | 0.00 | 0.00 | 0.00 | 61 | 1009.3 |